Time;durP1;ratioP1;P1;durP2;ratioP2;P2;SDS_P1;SDS_P2;PMS_P1;PMS_P2;Temp;Humidity;BMP_temperature;BMP_pressure;BME280_temperature;BME280_humidity;BME280_pressure;Samples;Min_cycle;Max_cycle;Signal;HPM_P1;HPM_P2
2023/09/25 00:03:42;;;;;;;1.60;0.60;;;13.60;99.90;;;;;;7304741;32;20112;-56
2023/09/25 00:07:44;;;;;;;2.90;1.25;;;13.70;99.90;;;;;;7290045;32;20108;-56
2023/09/25 00:11:45;;;;;;;1.27;0.65;;;13.70;99.90;;;;;;7299729;32;20372;-55
2023/09/25 00:15:47;;;;;;;2.40;0.82;;;13.80;99.90;;;;;;7305519;32;20612;-55
2023/09/25 00:19:49;;;;;;;2.35;0.60;;;13.80;99.90;;;;;;7303782;32;20209;-57
2023/09/25 00:23:51;;;;;;;4.32;1.62;;;13.80;99.90;;;;;;7298386;32;20132;-54
2023/09/25 00:27:53;;;;;;;1.50;0.90;;;13.70;99.90;;;;;;7293509;32;20129;-55
2023/09/25 00:31:55;;;;;;;1.52;0.80;;;13.60;99.90;;;;;;7311174;32;20108;-56
2023/09/25 00:35:57;;;;;;;1.62;0.70;;;13.50;99.90;;;;;;7301439;32;20207;-55
2023/09/25 00:39:59;;;;;;;2.75;1.00;;;13.50;99.90;;;;;;7307272;32;20226;-55
2023/09/25 00:44:01;;;;;;;1.70;0.77;;;13.40;99.90;;;;;;7301015;32;20606;-56
2023/09/25 00:48:04;;;;;;;1.95;0.77;;;13.30;99.90;;;;;;7301164;32;20180;-56
2023/09/25 00:52:07;;;;;;;1.45;0.80;;;13.20;99.90;;;;;;7303334;32;20612;-55
2023/09/25 00:56:08;;;;;;;1.30;0.60;;;13.40;99.90;;;;;;7308978;32;20103;-55
2023/09/25 01:00:11;;;;;;;1.98;0.80;;;13.40;99.90;;;;;;7308088;32;20103;-56
2023/09/25 01:04:13;;;;;;;1.62;0.80;;;13.30;99.90;;;;;;7309434;32;20085;-55
2023/09/25 01:08:15;;;;;;;2.62;0.70;;;13.40;99.90;;;;;;7306878;32;20108;-56
2023/09/25 01:12:17;;;;;;;1.33;0.70;;;13.40;99.90;;;;;;7303165;32;20105;-55
2023/09/25 01:16:22;;;;;;;1.48;0.70;;;13.30;99.90;;;;;;7303450;32;20217;-55
2023/09/25 01:20:24;;;;;;;1.90;0.70;;;13.40;99.90;;;;;;7306436;32;20241;-55
2023/09/25 01:24:25;;;;;;;3.45;0.70;;;13.40;99.90;;;;;;7306628;32;20112;-55
2023/09/25 01:28:27;;;;;;;3.33;0.70;;;13.30;99.90;;;;;;7302437;32;20578;-55
2023/09/25 01:32:29;;;;;;;1.08;0.60;;;13.40;99.90;;;;;;7301797;32;20692;-58
2023/09/25 01:36:31;;;;;;;2.70;0.80;;;13.30;99.90;;;;;;7300288;32;20113;-55
2023/09/25 01:40:32;;;;;;;1.12;0.80;;;13.20;99.90;;;;;;7306441;32;20112;-55
2023/09/25 01:44:34;;;;;;;1.73;0.80;;;13.20;99.90;;;;;;7294327;32;20112;-57
2023/09/25 01:48:36;;;;;;;2.60;0.77;;;13.30;99.90;;;;;;7302298;32;20126;-56
2023/09/25 01:52:39;;;;;;;1.83;0.80;;;13.10;99.90;;;;;;7305113;32;20124;-55
2023/09/25 01:56:41;;;;;;;1.50;0.80;;;13.10;99.90;;;;;;7298146;32;20251;-57
2023/09/25 02:00:43;;;;;;;1.05;0.75;;;13.10;99.90;;;;;;7308627;32;20338;-57
2023/09/25 02:04:45;;;;;;;3.60;0.70;;;13.00;99.90;;;;;;7301704;32;20322;-58
2023/09/25 02:08:47;;;;;;;2.72;0.73;;;13.00;99.90;;;;;;7304716;32;20147;-57
2023/09/25 02:12:49;;;;;;;1.12;0.77;;;13.10;99.90;;;;;;7302126;32;20195;-57
2023/09/25 02:16:51;;;;;;;2.70;0.73;;;13.10;99.90;;;;;;7300511;32;20828;-57
2023/09/25 02:20:53;;;;;;;2.90;0.93;;;13.00;99.90;;;;;;7302505;32;20214;-58
2023/09/25 02:24:54;;;;;;;2.40;0.80;;;13.10;99.90;;;;;;7289488;32;20157;-56
2023/09/25 02:28:56;;;;;;;1.42;0.75;;;13.00;99.90;;;;;;7304384;32;20205;-56
2023/09/25 02:32:59;;;;;;;1.05;0.62;;;13.00;99.90;;;;;;7294576;32;20130;-56
2023/09/25 02:37:01;;;;;;;1.25;0.73;;;13.00;99.90;;;;;;7296847;32;20513;-56
2023/09/25 02:41:03;;;;;;;1.77;0.73;;;13.00;99.90;;;;;;7301900;32;20127;-56
2023/09/25 02:45:05;;;;;;;1.10;0.90;;;12.90;99.90;;;;;;7305339;32;20173;-57
2023/09/25 02:49:07;;;;;;;1.10;0.73;;;12.80;99.90;;;;;;7309295;32;20275;-56
2023/09/25 02:53:09;;;;;;;1.37;0.70;;;12.80;99.90;;;;;;7306959;32;20538;-55
2023/09/25 02:57:11;;;;;;;1.00;0.70;;;12.70;99.90;;;;;;7304168;32;20347;-57
2023/09/25 03:01:13;;;;;;;4.55;1.10;;;12.60;99.90;;;;;;7310914;32;20543;-57
2023/09/25 03:05:15;;;;;;;1.15;0.60;;;12.60;99.90;;;;;;7303278;32;20115;-56
2023/09/25 03:09:16;;;;;;;2.03;0.77;;;12.50;99.90;;;;;;7306084;32;20239;-56
2023/09/25 03:13:18;;;;;;;1.85;0.77;;;12.40;99.90;;;;;;7306221;32;20126;-56
2023/09/25 03:17:20;;;;;;;1.40;0.88;;;12.40;99.90;;;;;;7306533;32;20127;-57
2023/09/25 03:21:22;;;;;;;1.08;0.70;;;12.40;99.90;;;;;;7311548;32;20193;-57
2023/09/25 03:25:24;;;;;;;1.05;0.70;;;12.30;99.90;;;;;;7303144;32;20116;-55
2023/09/25 03:29:25;;;;;;;1.62;0.93;;;12.30;99.90;;;;;;7309316;32;20127;-56
2023/09/25 03:33:27;;;;;;;1.70;0.60;;;12.30;99.90;;;;;;7306902;32;20132;-56
2023/09/25 03:37:29;;;;;;;2.58;0.80;;;12.20;99.90;;;;;;7301788;32;20179;-55
2023/09/25 03:41:32;;;;;;;1.77;0.80;;;12.20;99.90;;;;;;7309909;32;20100;-56
2023/09/25 03:45:34;;;;;;;2.35;1.00;;;12.10;99.90;;;;;;7304601;32;20779;-56
2023/09/25 03:49:37;;;;;;;0.98;0.73;;;12.10;99.90;;;;;;7306999;32;20447;-56
2023/09/25 03:53:38;;;;;;;2.90;0.93;;;12.00;99.90;;;;;;7304762;32;20144;-56
2023/09/25 03:57:40;;;;;;;2.28;0.85;;;12.10;99.90;;;;;;7296662;32;20500;-58
2023/09/25 04:01:42;;;;;;;1.55;0.90;;;12.00;99.90;;;;;;7301198;32;20184;-58
2023/09/25 04:05:44;;;;;;;2.80;0.70;;;11.90;99.90;;;;;;7302159;32;20115;-56
2023/09/25 04:09:45;;;;;;;3.22;0.90;;;11.90;99.90;;;;;;7299989;32;20255;-57
2023/09/25 04:13:47;;;;;;;1.87;1.02;;;11.80;99.90;;;;;;7300508;32;20150;-56
2023/09/25 04:17:52;;;;;;;1.52;0.90;;;11.80;99.90;;;;;;7299544;32;20270;-56
2023/09/25 04:21:54;;;;;;;3.62;0.90;;;11.70;99.90;;;;;;7297737;32;20134;-57
2023/09/25 04:26:00;;;;;;;1.02;0.70;;;11.70;99.90;;;;;;7295492;32;20150;-57
2023/09/25 04:30:03;;;;;;;1.65;1.00;;;11.80;99.90;;;;;;7296136;32;20163;-56
2023/09/25 04:34:05;;;;;;;1.52;1.00;;;11.90;99.90;;;;;;7296918;32;20151;-55
2023/09/25 04:38:07;;;;;;;1.80;1.12;;;12.00;99.90;;;;;;7300067;32;20176;-56
2023/09/25 04:42:09;;;;;;;3.58;1.00;;;12.10;99.90;;;;;;7296724;32;20576;-57
2023/09/25 04:46:11;;;;;;;1.60;0.75;;;12.20;99.90;;;;;;7297290;32;20126;-56
2023/09/25 04:50:13;;;;;;;1.37;0.93;;;12.20;99.90;;;;;;7298718;32;20223;-56
2023/09/25 04:54:15;;;;;;;2.45;1.05;;;12.20;99.90;;;;;;7301250;32;20108;-57
2023/09/25 04:58:17;;;;;;;1.45;0.85;;;12.20;99.90;;;;;;7298791;32;20127;-55
2023/09/25 05:02:19;;;;;;;2.55;1.00;;;12.30;99.90;;;;;;7301068;32;20282;-55
2023/09/25 05:06:21;;;;;;;3.47;1.15;;;12.30;99.90;;;;;;7300403;32;20174;-57
2023/09/25 05:10:26;;;;;;;2.97;1.00;;;12.30;99.90;;;;;;7307817;32;20104;-55
2023/09/25 05:14:29;;;;;;;1.12;0.73;;;12.40;99.90;;;;;;7305931;32;20165;-55
2023/09/25 05:18:31;;;;;;;2.25;1.05;;;12.40;99.90;;;;;;7301390;32;20176;-56
2023/09/25 05:22:33;;;;;;;2.42;0.80;;;12.40;99.90;;;;;;7302311;32;20207;-57
2023/09/25 05:26:36;;;;;;;1.92;0.77;;;12.50;99.90;;;;;;7300810;32;20124;-57
2023/09/25 05:30:38;;;;;;;2.17;1.15;;;12.50;99.90;;;;;;7287519;32;20130;-57
2023/09/25 05:34:40;;;;;;;2.80;1.35;;;12.50;99.90;;;;;;7292897;32;20496;-57
2023/09/25 05:38:41;;;;;;;1.27;0.85;;;12.50;99.90;;;;;;7282875;32;20571;-57
2023/09/25 05:42:45;;;;;;;10.57;6.05;;;12.50;99.90;;;;;;7284058;32;20198;-58
2023/09/25 05:46:47;;;;;;;2.58;0.70;;;12.50;99.90;;;;;;7297176;32;20149;-56
2023/09/25 05:50:48;;;;;;;1.77;1.08;;;12.60;99.90;;;;;;7298361;32;20157;-57
2023/09/25 05:54:51;;;;;;;4.82;1.30;;;12.60;99.90;;;;;;7302425;32;20293;-57
2023/09/25 05:58:53;;;;;;;1.55;0.93;;;12.70;99.90;;;;;;7301117;32;20111;-56
2023/09/25 06:02:55;;;;;;;3.00;1.05;;;12.70;99.90;;;;;;7292535;32;20120;-56
2023/09/25 06:06:56;;;;;;;2.70;1.10;;;12.80;99.90;;;;;;7299773;32;20116;-56
2023/09/25 06:11:02;;;;;;;1.65;0.80;;;12.80;99.90;;;;;;7294074;32;20123;-57
2023/09/25 06:15:09;;;;;;;2.40;1.17;;;12.90;99.90;;;;;;7298028;32;20280;-56
2023/09/25 06:19:12;;;;;;;3.43;1.03;;;12.90;99.90;;;;;;7301123;32;20344;-56
2023/09/25 06:23:17;;;;;;;3.37;1.30;;;12.90;99.90;;;;;;7301410;32;20238;-56
2023/09/25 06:27:19;;;;;;;2.40;1.17;;;13.00;99.90;;;;;;7305845;32;20162;-56
2023/09/25 06:31:22;;;;;;;2.50;1.17;;;13.00;99.90;;;;;;7307891;32;20155;-56
2023/09/25 06:35:24;;;;;;;5.03;1.52;;;13.10;99.90;;;;;;7308591;32;20504;-56
2023/09/25 06:39:26;;;;;;;1.73;1.00;;;13.10;99.90;;;;;;7305448;32;20238;-56
2023/09/25 06:43:28;;;;;;;1.58;0.90;;;13.20;99.90;;;;;;7303358;32;20221;-55
2023/09/25 06:47:30;;;;;;;3.85;1.00;;;13.30;99.90;;;;;;7305352;32;20294;-57
2023/09/25 06:51:32;;;;;;;4.50;1.02;;;13.40;99.90;;;;;;7306173;32;20462;-56
2023/09/25 06:55:33;;;;;;;2.08;1.10;;;13.50;99.90;;;;;;7302565;32;20112;-56
2023/09/25 06:59:35;;;;;;;3.75;0.90;;;13.60;99.90;;;;;;7304787;32;20225;-57
2023/09/25 07:03:37;;;;;;;2.35;1.10;;;13.80;99.90;;;;;;7299266;32;20127;-57
2023/09/25 07:07:39;;;;;;;1.83;1.10;;;13.80;99.90;;;;;;7306674;32;20855;-57
2023/09/25 07:11:41;;;;;;;2.53;1.00;;;14.00;99.90;;;;;;7312372;32;20134;-57
2023/09/25 07:15:43;;;;;;;1.70;0.80;;;14.10;99.90;;;;;;7304406;32;20115;-57
2023/09/25 07:19:50;;;;;;;3.85;0.98;;;14.20;99.90;;;;;;7302132;32;20135;-58
2023/09/25 07:23:52;;;;;;;2.95;1.17;;;14.30;99.90;;;;;;7302186;32;20155;-57
2023/09/25 07:27:54;;;;;;;2.03;1.00;;;14.40;99.90;;;;;;7297653;32;20197;-56
2023/09/25 07:31:56;;;;;;;1.95;1.02;;;14.50;99.90;;;;;;7304272;32;20120;-57
2023/09/25 07:35:58;;;;;;;1.90;1.00;;;14.50;99.90;;;;;;7312662;32;20139;-57
2023/09/25 07:40:09;;;;;;;2.45;1.30;;;14.50;99.90;;;;;;7304486;32;20124;-56
2023/09/25 07:44:12;;;;;;;2.95;1.05;;;14.70;99.90;;;;;;7305149;32;20151;-57
2023/09/25 07:48:17;;;;;;;2.33;1.02;;;14.70;99.90;;;;;;7305786;32;20183;-57
2023/09/25 07:52:20;;;;;;;2.22;0.95;;;14.80;99.90;;;;;;7306742;32;20165;-57
2023/09/25 07:56:22;;;;;;;2.37;1.00;;;14.90;99.90;;;;;;7305586;32;20807;-56
2023/09/25 08:00:24;;;;;;;7.00;4.82;;;15.00;99.90;;;;;;7301546;32;20520;-57
2023/09/25 08:04:26;;;;;;;2.70;1.33;;;15.10;99.90;;;;;;7282675;32;20974;-58
2023/09/25 08:08:29;;;;;;;2.28;1.20;;;15.10;99.90;;;;;;7302920;32;20115;-56
2023/09/25 08:12:30;;;;;;;1.80;0.93;;;15.20;99.90;;;;;;7303605;32;20203;-57
2023/09/25 08:16:32;;;;;;;2.55;1.20;;;15.30;99.90;;;;;;7303527;32;20112;-57
2023/09/25 08:20:34;;;;;;;4.03;1.35;;;15.50;99.90;;;;;;7305930;32;20218;-56
2023/09/25 08:24:37;;;;;;;2.47;1.30;;;15.70;99.90;;;;;;7303779;32;20168;-57
2023/09/25 08:28:39;;;;;;;2.67;1.10;;;15.70;99.90;;;;;;7299719;32;20112;-57
2023/09/25 08:32:40;;;;;;;3.45;1.20;;;16.00;99.90;;;;;;7301322;32;20588;-57
2023/09/25 08:36:42;;;;;;;2.70;1.10;;;16.30;99.90;;;;;;7301211;32;20146;-57
2023/09/25 08:40:49;;;;;;;2.40;0.98;;;16.50;99.90;;;;;;7306867;32;20298;-57
2023/09/25 08:44:52;;;;;;;4.60;1.20;;;16.70;99.90;;;;;;7302416;32;20919;-57
2023/09/25 08:48:56;;;;;;;1.98;0.90;;;17.10;99.90;;;;;;7304656;32;20467;-57
2023/09/25 08:52:58;;;;;;;5.85;0.95;;;17.10;99.90;;;;;;7304815;32;20855;-57
2023/09/25 08:57:00;;;;;;;2.80;1.20;;;17.30;99.90;;;;;;7303286;32;20217;-56
2023/09/25 09:01:03;;;;;;;1.60;1.00;;;17.50;99.90;;;;;;7301293;32;20183;-57
2023/09/25 09:05:05;;;;;;;2.50;0.98;;;17.50;99.90;;;;;;7302066;32;20443;-57
2023/09/25 09:09:08;;;;;;;5.50;1.10;;;17.70;99.90;;;;;;7303537;32;20111;-57
2023/09/25 09:13:10;;;;;;;2.70;0.90;;;18.00;99.90;;;;;;7302528;32;20561;-57
2023/09/25 09:17:13;;;;;;;1.98;1.00;;;18.20;99.90;;;;;;7299550;32;20498;-57
2023/09/25 09:21:26;;;;;;;3.55;1.25;;;18.40;99.90;;;;;;7304391;32;20133;-57
2023/09/25 09:25:33;;;;;;;2.10;0.95;;;18.70;99.90;;;;;;7294475;32;20123;-57
2023/09/25 09:29:42;;;;;;;4.25;2.28;;;19.10;99.90;;;;;;7297870;32;20128;-59
2023/09/25 09:33:44;;;;;;;4.22;1.50;;;19.50;99.90;;;;;;7302355;32;20274;-58
2023/09/25 09:37:48;;;;;;;2.00;1.08;;;20.20;99.90;;;;;;7303188;32;20107;-58
2023/09/25 09:41:51;;;;;;;1.90;0.98;;;20.80;99.90;;;;;;7303066;32;20206;-58
2023/09/25 09:45:52;;;;;;;2.95;1.10;;;21.60;99.90;;;;;;7302210;32;20135;-57
2023/09/25 09:49:55;;;;;;;2.75;1.10;;;22.70;99.90;;;;;;7300253;32;20482;-58
2023/09/25 09:54:02;;;;;;;3.67;1.20;;;23.70;99.90;;;;;;7301043;32;20116;-58
2023/09/25 09:58:05;;;;;;;2.75;1.08;;;24.40;99.90;;;;;;7302788;32;20207;-57
2023/09/25 10:02:08;;;;;;;2.30;1.20;;;24.80;99.90;;;;;;7296834;32;20571;-58
2023/09/25 10:06:11;;;;;;;2.83;1.05;;;25.30;99.80;;;;;;7299839;32;20130;-57
2023/09/25 10:10:12;;;;;;;5.40;1.10;;;25.60;97.10;;;;;;7299426;32;20111;-57
2023/09/25 10:14:22;;;;;;;2.50;1.15;;;25.50;96.50;;;;;;7302561;32;20740;-57
2023/09/25 10:18:28;;;;;;;1.60;0.90;;;25.60;94.60;;;;;;7301941;32;20178;-59
2023/09/25 10:22:30;;;;;;;1.55;0.93;;;25.30;95.70;;;;;;7297164;32;20322;-57
2023/09/25 10:26:33;;;;;;;2.10;0.82;;;24.40;95.50;;;;;;7299739;32;20138;-57
2023/09/25 10:30:35;;;;;;;1.98;0.90;;;24.40;97.00;;;;;;7302865;32;20151;-58
2023/09/25 10:34:41;;;;;;;1.87;0.90;;;23.90;98.60;;;;;;7299632;32;20100;-57
2023/09/25 10:38:43;;;;;;;1.85;0.93;;;22.60;97.30;;;;;;7301319;32;20172;-56
2023/09/25 10:42:45;;;;;;;2.37;1.40;;;21.50;99.40;;;;;;7301822;32;20111;-57
2023/09/25 10:46:47;;;;;;;1.90;1.10;;;21.20;99.90;;;;;;7301774;32;20174;-57
2023/09/25 10:50:49;;;;;;;1.85;0.90;;;21.00;99.90;;;;;;7301333;32;20149;-57
2023/09/25 10:54:51;;;;;;;1.83;0.90;;;20.70;99.90;;;;;;7302250;32;20708;-57
2023/09/25 10:58:53;;;;;;;3.42;1.00;;;20.40;99.90;;;;;;7300470;32;20207;-57
2023/09/25 11:02:55;;;;;;;2.45;0.90;;;20.20;99.90;;;;;;7302412;32;20112;-57
2023/09/25 11:06:58;;;;;;;2.80;1.10;;;20.30;99.90;;;;;;7299254;32;20768;-57
2023/09/25 11:11:02;;;;;;;2.15;1.00;;;20.20;99.90;;;;;;7303363;32;20261;-56
2023/09/25 11:15:11;;;;;;;1.52;0.80;;;20.20;99.90;;;;;;7307579;32;20161;-57
2023/09/25 11:19:15;;;;;;;1.52;0.85;;;20.30;99.90;;;;;;7309970;32;20119;-57
2023/09/25 11:23:17;;;;;;;2.28;0.90;;;20.60;99.90;;;;;;7307583;32;20103;-57
2023/09/25 11:27:23;;;;;;;3.67;0.80;;;20.90;99.90;;;;;;7302490;32;20168;-57
2023/09/25 11:31:26;;;;;;;1.05;0.70;;;21.10;99.90;;;;;;7315070;32;20176;-58
2023/09/25 11:35:28;;;;;;;2.08;1.15;;;21.20;99.90;;;;;;7308258;32;20120;-57
2023/09/25 11:39:32;;;;;;;2.22;1.12;;;21.10;99.90;;;;;;7304714;32;20108;-57
2023/09/25 11:43:35;;;;;;;2.55;1.00;;;21.10;99.90;;;;;;7303568;32;20112;-58
2023/09/25 11:47:37;;;;;;;2.67;1.12;;;21.00;99.90;;;;;;7308022;32;20120;-56
2023/09/25 11:51:38;;;;;;;2.50;0.82;;;21.10;99.90;;;;;;7312945;32;20327;-57
2023/09/25 11:55:40;;;;;;;1.60;0.90;;;21.30;99.90;;;;;;7303845;32;20195;-57
2023/09/25 11:59:44;;;;;;;2.05;0.90;;;21.50;99.90;;;;;;7305581;32;20111;-57
2023/09/25 12:03:46;;;;;;;1.92;0.90;;;21.50;99.90;;;;;;7298127;32;20227;-57
2023/09/25 12:07:49;;;;;;;1.30;0.70;;;21.30;99.90;;;;;;7303404;32;20115;-57
2023/09/25 12:11:51;;;;;;;4.15;0.90;;;21.20;99.90;;;;;;7301429;32;20211;-57
2023/09/25 12:15:53;;;;;;;1.85;0.90;;;21.30;99.90;;;;;;7300418;32;20671;-57
2023/09/25 12:19:55;;;;;;;3.15;0.93;;;21.30;99.90;;;;;;7302275;32;20678;-56
2023/09/25 12:23:57;;;;;;;2.08;0.70;;;21.20;99.90;;;;;;7312480;32;20135;-57
2023/09/25 12:27:58;;;;;;;1.37;0.88;;;21.20;99.90;;;;;;7302283;32;20115;-57
2023/09/25 12:32:00;;;;;;;2.60;0.85;;;21.30;99.90;;;;;;7302879;32;20103;-58
2023/09/25 12:36:03;;;;;;;3.33;0.80;;;21.00;99.90;;;;;;7306863;32;20120;-58
2023/09/25 12:40:05;;;;;;;1.58;0.80;;;21.00;99.90;;;;;;7302751;32;20118;-54
2023/09/25 12:44:08;;;;;;;2.80;0.90;;;21.20;99.90;;;;;;7300602;32;20287;-57
2023/09/25 12:48:10;;;;;;;2.42;1.00;;;21.30;99.90;;;;;;7285770;32;20111;-57
2023/09/25 12:52:12;;;;;;;2.72;0.90;;;21.60;99.90;;;;;;7299870;32;20223;-58
2023/09/25 12:56:14;;;;;;;1.67;0.90;;;21.80;99.90;;;;;;7307140;32;20115;-58
2023/09/25 13:00:18;;;;;;;2.72;1.00;;;21.70;99.90;;;;;;7300124;32;20112;-58
2023/09/25 13:04:19;;;;;;;1.65;0.90;;;21.60;99.90;;;;;;7297584;32;20112;-55
2023/09/25 13:08:21;;;;;;;1.37;0.62;;;21.70;99.90;;;;;;7302709;32;20275;-55
2023/09/25 13:12:24;;;;;;;2.20;0.88;;;21.80;99.90;;;;;;7302789;32;20295;-54
2023/09/25 13:16:26;;;;;;;2.20;0.80;;;21.90;99.90;;;;;;7306767;32;20154;-55
2023/09/25 13:20:28;;;;;;;3.85;1.23;;;22.00;99.90;;;;;;7299640;32;20482;-54
2023/09/25 13:24:29;;;;;;;4.15;0.90;;;21.90;99.90;;;;;;7302360;32;20253;-55
2023/09/25 13:28:31;;;;;;;3.33;1.08;;;21.80;99.90;;;;;;7297894;32;20203;-55
2023/09/25 13:32:33;;;;;;;1.33;0.90;;;21.70;99.90;;;;;;7308055;32;20544;-56
2023/09/25 13:36:35;;;;;;;2.50;0.80;;;21.80;99.90;;;;;;7300190;32;20553;-55
2023/09/25 13:40:37;;;;;;;2.15;1.10;;;21.90;99.90;;;;;;7303250;32;20218;-56
2023/09/25 13:44:38;;;;;;;2.17;1.12;;;21.80;99.90;;;;;;7301392;32;20124;-56
2023/09/25 13:48:43;;;;;;;1.73;0.90;;;21.90;99.90;;;;;;7293302;32;20138;-56
2023/09/25 13:52:46;;;;;;;1.30;0.80;;;21.90;99.90;;;;;;7299468;32;20195;-55
2023/09/25 13:56:48;;;;;;;1.75;0.98;;;21.90;99.90;;;;;;7294009;32;20699;-55
2023/09/25 14:00:49;;;;;;;2.25;0.80;;;21.80;99.90;;;;;;7296557;32;20120;-55
2023/09/25 14:04:51;;;;;;;2.10;1.00;;;21.90;99.90;;;;;;7302241;32;20355;-55
2023/09/25 14:08:54;;;;;;;2.08;0.88;;;21.90;99.90;;;;;;7302637;32;20137;-55
2023/09/25 14:12:55;;;;;;;3.08;0.85;;;21.70;99.90;;;;;;7302966;32;20108;-57
2023/09/25 14:16:57;;;;;;;4.32;0.93;;;21.70;99.90;;;;;;7299294;32;20165;-56
2023/09/25 14:20:59;;;;;;;1.55;0.90;;;21.60;99.90;;;;;;7303425;32;20525;-55
2023/09/25 14:25:06;;;;;;;1.95;0.80;;;21.60;99.10;;;;;;7306391;32;20111;-56
2023/09/25 14:29:08;;;;;;;1.80;0.70;;;21.60;99.90;;;;;;7307696;32;20127;-55
2023/09/25 14:33:11;;;;;;;2.65;0.93;;;21.60;99.40;;;;;;7299523;32;20252;-55
2023/09/25 14:37:13;;;;;;;1.50;0.80;;;21.80;99.90;;;;;;7302916;32;20111;-56
2023/09/25 14:41:14;;;;;;;2.45;1.37;;;21.50;99.90;;;;;;7319006;32;20185;-56
2023/09/25 14:45:17;;;;;;;1.95;0.85;;;21.30;99.90;;;;;;7307449;32;20290;-56
2023/09/25 14:49:19;;;;;;;2.42;0.95;;;21.10;99.90;;;;;;7306049;32;20104;-56
2023/09/25 14:53:21;;;;;;;3.83;1.00;;;21.10;99.90;;;;;;7307423;32;20299;-55
2023/09/25 14:57:23;;;;;;;4.30;1.00;;;21.10;99.90;;;;;;7303069;32;20248;-55
2023/09/25 15:01:24;;;;;;;1.73;0.90;;;21.00;99.90;;;;;;7306602;32;20610;-57
2023/09/25 15:05:26;;;;;;;2.33;0.80;;;21.00;99.90;;;;;;7318304;32;20109;-56
2023/09/25 15:09:28;;;;;;;1.52;1.02;;;20.90;99.90;;;;;;7306249;32;20521;-56
2023/09/25 15:13:30;;;;;;;4.45;2.22;;;20.70;99.90;;;;;;7308119;32;20804;-58
2023/09/25 15:17:32;;;;;;;2.20;0.95;;;20.70;99.90;;;;;;7304662;32;20591;-58
2023/09/25 15:21:33;;;;;;;2.72;0.90;;;20.90;99.90;;;;;;7305320;32;20473;-59
2023/09/25 15:25:35;;;;;;;2.45;1.17;;;20.90;99.90;;;;;;7309754;32;20139;-57
2023/09/25 15:29:39;;;;;;;1.92;0.90;;;20.60;99.90;;;;;;7311659;32;20165;-57
2023/09/25 15:33:40;;;;;;;3.12;1.10;;;20.50;99.90;;;;;;7306236;32;20168;-56
2023/09/25 15:37:42;;;;;;;1.45;0.90;;;20.50;99.90;;;;;;7316975;32;20231;-57
2023/09/25 15:41:44;;;;;;;1.85;0.98;;;20.60;99.90;;;;;;7309495;32;20142;-56
2023/09/25 15:45:45;;;;;;;2.62;0.90;;;20.60;99.90;;;;;;7310001;32;20501;-57
2023/09/25 15:49:51;;;;;;;2.78;1.00;;;20.50;99.90;;;;;;7303365;32;20109;-57
2023/09/25 15:53:53;;;;;;;5.35;1.10;;;20.50;99.90;;;;;;7310145;32;20181;-57
2023/09/25 15:57:55;;;;;;;2.97;1.10;;;20.30;99.90;;;;;;7307003;32;20625;-58
2023/09/25 16:01:56;;;;;;;1.60;0.95;;;20.10;99.90;;;;;;7304558;32;20124;-57
2023/09/25 16:05:58;;;;;;;1.85;1.10;;;20.00;99.90;;;;;;7308532;32;20276;-57
2023/09/25 16:10:01;;;;;;;2.47;0.90;;;19.90;99.90;;;;;;7311999;32;20502;-57
2023/09/25 16:14:03;;;;;;;1.85;0.90;;;19.90;99.90;;;;;;7301978;32;20163;-58
2023/09/25 16:18:05;;;;;;;2.65;0.90;;;19.70;99.90;;;;;;7295181;32;20171;-59
2023/09/25 16:22:07;;;;;;;3.42;1.00;;;19.70;99.90;;;;;;7301036;32;20169;-58
2023/09/25 16:26:09;;;;;;;1.40;0.90;;;19.60;99.90;;;;;;7304553;32;20235;-58
2023/09/25 16:30:11;;;;;;;4.05;1.00;;;19.60;99.90;;;;;;7308819;32;20161;-57
2023/09/25 16:34:13;;;;;;;2.42;0.95;;;19.30;99.90;;;;;;7307328;32;20747;-58
2023/09/25 16:38:14;;;;;;;1.75;0.93;;;19.10;99.90;;;;;;7303538;32;20111;-58
2023/09/25 16:42:16;;;;;;;1.85;0.98;;;19.00;99.90;;;;;;7306240;32;20131;-59
2023/09/25 16:46:18;;;;;;;2.95;1.05;;;18.90;99.90;;;;;;7303944;32;20108;-58
2023/09/25 16:50:22;;;;;;;1.45;1.00;;;18.70;99.90;;;;;;7308561;32;20167;-59
2023/09/25 16:54:24;;;;;;;2.35;1.08;;;18.50;99.90;;;;;;7301059;32;20700;-58
2023/09/25 16:58:26;;;;;;;2.10;1.02;;;18.30;99.90;;;;;;7298437;32;20266;-59
2023/09/25 17:02:29;;;;;;;3.08;1.30;;;18.00;99.90;;;;;;7299139;32;20748;-59
2023/09/25 17:06:31;;;;;;;3.72;1.10;;;17.60;99.90;;;;;;7300394;32;20120;-58
2023/09/25 17:10:34;;;;;;;2.12;1.12;;;17.40;99.90;;;;;;7309668;32;20668;-59
2023/09/25 17:14:35;;;;;;;1.75;1.10;;;17.10;99.90;;;;;;7302131;32;20269;-59
2023/09/25 17:18:37;;;;;;;1.92;1.15;;;16.90;99.90;;;;;;7304717;32;20123;-58
2023/09/25 17:22:39;;;;;;;2.42;1.30;;;16.60;99.90;;;;;;7299575;32;20168;-58
2023/09/25 17:26:41;;;;;;;2.53;1.10;;;16.30;99.90;;;;;;7291355;32;20783;-58
2023/09/25 17:30:43;;;;;;;4.68;1.85;;;16.00;99.90;;;;;;7301885;32;20728;-58
2023/09/25 17:35:04;;;;;;;6.70;3.25;;;15.90;99.90;;;;;;7301062;32;20239;-57
2023/09/25 17:39:06;;;;;;;6.95;1.20;;;15.60;99.90;;;;;;7299819;32;20316;-58
2023/09/25 17:43:08;;;;;;;2.15;1.33;;;15.50;99.90;;;;;;7301648;32;20316;-57
2023/09/25 17:47:09;;;;;;;6.55;1.37;;;15.30;99.90;;;;;;7307902;32;20138;-57
2023/09/25 17:51:12;;;;;;;2.97;1.30;;;15.10;99.90;;;;;;7303322;32;20115;-56
2023/09/25 17:55:14;;;;;;;4.43;1.40;;;14.90;99.90;;;;;;7300126;32;20259;-58
2023/09/25 17:59:16;;;;;;;4.85;1.33;;;14.80;99.90;;;;;;7305635;32;20115;-57
2023/09/25 18:03:18;;;;;;;3.30;1.20;;;14.60;99.90;;;;;;7306298;32;20124;-57
2023/09/25 18:07:20;;;;;;;4.32;2.00;;;14.50;99.90;;;;;;7285897;32;20226;-56
2023/09/25 18:11:21;;;;;;;6.62;1.55;;;14.30;99.90;;;;;;7305021;32;20494;-56
2023/09/25 18:15:24;;;;;;;3.08;1.33;;;14.20;99.90;;;;;;7304723;32;20130;-57
2023/09/25 18:19:26;;;;;;;6.20;1.10;;;14.10;99.90;;;;;;7306490;32;20220;-57
2023/09/25 18:23:29;;;;;;;6.35;1.23;;;13.90;99.90;;;;;;7301842;32;20241;-57
2023/09/25 18:27:31;;;;;;;4.65;1.40;;;13.90;99.90;;;;;;7303841;32;20593;-57
2023/09/25 18:31:33;;;;;;;5.50;1.70;;;13.80;99.90;;;;;;7311572;32;20195;-57
2023/09/25 18:35:36;;;;;;;5.40;1.33;;;13.70;99.90;;;;;;7305302;32;20184;-58
2023/09/25 18:39:38;;;;;;;4.03;1.25;;;13.60;99.90;;;;;;7306215;32;20112;-58
2023/09/25 18:43:40;;;;;;;6.00;3.60;;;13.40;99.90;;;;;;7306947;32;20116;-56
2023/09/25 18:47:41;;;;;;;4.78;2.40;;;13.40;99.90;;;;;;7308597;32;20135;-56
2023/09/25 18:51:43;;;;;;;3.00;1.70;;;13.30;99.90;;;;;;7305399;32;20672;-57
2023/09/25 18:55:45;;;;;;;3.37;1.70;;;13.20;99.90;;;;;;7307068;32;20631;-57
2023/09/25 18:59:47;;;;;;;3.87;1.40;;;13.10;99.90;;;;;;7302542;32;20231;-57
2023/09/25 19:03:49;;;;;;;4.68;1.52;;;13.00;99.90;;;;;;7300124;32;20237;-56
2023/09/25 19:07:51;;;;;;;4.10;1.45;;;13.00;99.90;;;;;;7308400;32;20554;-56
2023/09/25 19:11:53;;;;;;;3.03;1.90;;;12.90;99.90;;;;;;7308667;32;20162;-56
2023/09/25 19:15:54;;;;;;;5.12;1.52;;;12.80;99.90;;;;;;7305390;32;20279;-56
2023/09/25 19:19:56;;;;;;;5.97;1.62;;;12.80;99.90;;;;;;7303742;32;20103;-56
2023/09/25 19:23:59;;;;;;;4.78;1.70;;;12.80;99.90;;;;;;7308811;32;20996;-55
2023/09/25 19:28:02;;;;;;;2.40;1.50;;;12.70;99.90;;;;;;7289077;32;20130;-57
2023/09/25 19:32:04;;;;;;;4.43;1.83;;;12.60;99.90;;;;;;7304685;32;20104;-56
2023/09/25 19:36:06;;;;;;;5.20;2.03;;;12.60;99.90;;;;;;7299850;32;20132;-56
2023/09/25 19:40:08;;;;;;;5.15;1.80;;;12.60;99.90;;;;;;7301449;32;20440;-56
2023/09/25 19:44:10;;;;;;;2.45;1.80;;;12.50;99.90;;;;;;7304224;32;20108;-55
2023/09/25 19:48:12;;;;;;;3.35;1.70;;;12.40;99.90;;;;;;7302230;32;20104;-56
2023/09/25 19:52:14;;;;;;;2.70;1.70;;;12.40;99.90;;;;;;7303193;32;20249;-56
2023/09/25 19:56:16;;;;;;;3.55;1.55;;;12.30;99.90;;;;;;7303146;32;20101;-56
2023/09/25 20:00:18;;;;;;;5.70;2.08;;;12.30;99.90;;;;;;7308560;32;20214;-58
2023/09/25 20:04:20;;;;;;;4.62;1.75;;;12.20;99.90;;;;;;7305069;32;20522;-57
2023/09/25 20:08:21;;;;;;;3.00;1.67;;;12.10;99.90;;;;;;7295443;32;20120;-55
2023/09/25 20:12:23;;;;;;;2.92;1.52;;;12.00;99.90;;;;;;7305609;32;20218;-56
2023/09/25 20:16:25;;;;;;;3.40;1.70;;;12.00;99.90;;;;;;7303354;32;20465;-57
2023/09/25 20:20:27;;;;;;;4.30;2.00;;;12.00;99.90;;;;;;7309559;32;20154;-56
2023/09/25 20:24:29;;;;;;;3.62;1.80;;;11.90;99.90;;;;;;7302577;32;20156;-56
2023/09/25 20:28:31;;;;;;;3.45;1.70;;;11.90;99.90;;;;;;7304957;32;20814;-56
2023/09/25 20:32:33;;;;;;;5.10;1.70;;;11.80;99.90;;;;;;7304309;32;21070;-56
2023/09/25 20:36:34;;;;;;;3.72;1.65;;;11.80;99.90;;;;;;7302353;32;20167;-55
2023/09/25 20:40:36;;;;;;;6.85;2.12;;;11.80;99.90;;;;;;7304525;32;20118;-56
2023/09/25 20:44:38;;;;;;;6.60;2.92;;;11.70;99.90;;;;;;7299067;32;20163;-56
2023/09/25 20:48:40;;;;;;;5.05;3.25;;;11.70;99.90;;;;;;7301753;32;20228;-55
2023/09/25 20:52:43;;;;;;;6.10;3.20;;;11.70;99.90;;;;;;7303357;32;20187;-55
2023/09/25 20:57:41;;;;;;;7.60;2.70;;;11.60;99.90;;;;;;7410190;31;20091;-56
2023/09/25 21:01:43;;;;;;;4.97;2.47;;;11.50;99.90;;;;;;7391645;32;20229;-56
2023/09/25 21:05:45;;;;;;;2.92;2.12;;;11.50;99.90;;;;;;7392210;32;20121;-56